createdAt,value
2017-08-24T00:00:36.750Z,23.92
2017-08-24T00:03:08.089Z,23.82
2017-08-24T00:05:39.409Z,23.73
2017-08-24T00:08:11.241Z,23.73
2017-08-24T00:10:42.574Z,23.72
2017-08-24T00:13:13.937Z,23.68
2017-08-24T00:15:45.692Z,23.59
2017-08-24T00:18:17.620Z,23.55
2017-08-24T00:20:49.421Z,23.54
2017-08-24T00:23:21.241Z,23.54
2017-08-24T00:25:52.935Z,23.50
2017-08-24T00:28:26.028Z,23.53
2017-08-24T00:30:57.408Z,23.52
2017-08-24T00:33:28.763Z,23.52
2017-08-24T00:36:00.589Z,23.55
2017-08-24T00:38:31.942Z,23.55
2017-08-24T00:41:03.715Z,23.49
2017-08-24T00:43:35.078Z,23.53
2017-08-24T00:46:06.402Z,23.43
2017-08-24T00:48:38.223Z,23.38
2017-08-24T00:51:09.589Z,23.33
2017-08-24T00:53:41.241Z,23.27
2017-08-24T00:56:12.918Z,23.20
2017-08-24T00:58:44.940Z,23.08
2017-08-24T01:01:16.344Z,22.95
2017-08-24T01:03:47.687Z,22.88
2017-08-24T01:06:19.107Z,22.86
2017-08-24T01:08:50.933Z,22.77
2017-08-24T01:11:22.433Z,22.69
2017-08-24T01:13:54.028Z,22.54
2017-08-24T01:16:27.098Z,22.48
2017-08-24T01:18:58.465Z,22.39
2017-08-24T01:21:29.841Z,22.33
2017-08-24T01:24:01.359Z,22.29
2017-08-24T01:26:32.724Z,22.35
2017-08-24T01:29:04.623Z,22.34
2017-08-24T01:31:36.935Z,22.38
2017-08-24T01:34:08.289Z,22.46
2017-08-24T01:36:40.089Z,22.53
2017-08-24T01:39:11.400Z,22.56
2017-08-24T01:41:42.713Z,22.59
2017-08-24T01:44:15.046Z,22.55
2017-08-24T01:46:55.012Z,22.52
2017-08-24T01:49:27.406Z,22.49
2017-08-24T01:51:58.714Z,22.48
2017-08-24T01:54:31.256Z,22.46
2017-08-24T01:57:03.316Z,22.43
2017-08-24T01:59:34.652Z,22.43
2017-08-24T02:02:06.027Z,22.41
2017-08-24T02:04:37.339Z,22.42
2017-08-24T02:07:08.653Z,22.44
2017-08-24T02:09:40.338Z,22.41
2017-08-24T02:12:11.920Z,22.44
2017-08-24T02:14:43.242Z,22.48
2017-08-24T02:17:14.956Z,22.49
2017-08-24T02:19:46.412Z,22.46
2017-08-24T02:22:17.750Z,22.44
2017-08-24T02:24:49.095Z,22.44
2017-08-24T02:27:20.401Z,22.48
2017-08-24T02:29:52.236Z,22.51
2017-08-24T02:32:23.895Z,22.56
2017-08-24T02:34:55.369Z,22.44
2017-08-24T02:37:27.601Z,22.44
2017-08-24T02:39:58.900Z,22.41
2017-08-24T02:42:31.615Z,22.43
2017-08-24T02:45:04.583Z,22.46
2017-08-24T02:47:36.119Z,22.42
2017-08-24T02:50:07.441Z,22.40
2017-08-24T02:52:39.367Z,22.34
2017-08-24T02:55:11.661Z,22.26
2017-08-24T02:57:43.288Z,22.22
2017-08-24T03:00:14.656Z,22.19
2017-08-24T03:02:45.952Z,22.18
2017-08-24T03:05:17.657Z,22.10
2017-08-24T03:07:48.965Z,21.99
2017-08-24T03:10:20.322Z,21.93
2017-08-24T03:12:52.082Z,21.91
2017-08-24T03:15:24.021Z,21.93
2017-08-24T03:17:55.675Z,21.94
2017-08-24T03:20:28.269Z,21.93
2017-08-24T03:22:59.613Z,21.88
2017-08-24T03:25:31.324Z,21.86
2017-08-24T03:28:03.903Z,21.82
2017-08-24T03:30:35.204Z,21.75
2017-08-24T03:33:06.967Z,21.73
2017-08-24T03:36:40.528Z,21.72
2017-08-24T03:39:12.333Z,21.71
2017-08-24T03:41:43.635Z,21.62
2017-08-24T03:44:14.939Z,21.56
2017-08-24T03:46:46.604Z,21.56
2017-08-24T03:49:17.923Z,21.52
2017-08-24T03:51:49.526Z,21.52
2017-08-24T03:54:20.874Z,21.48
2017-08-24T03:56:52.226Z,21.40
2017-08-24T03:59:24.908Z,21.43
2017-08-24T04:01:56.245Z,21.46
2017-08-24T04:04:28.572Z,21.43
2017-08-24T04:07:00.335Z,21.36
2017-08-24T04:09:31.651Z,21.35
2017-08-24T04:12:04.183Z,21.23
2017-08-24T04:14:35.528Z,21.25
2017-08-24T04:17:06.849Z,21.28
2017-08-24T04:19:38.602Z,21.18
2017-08-24T04:22:09.960Z,21.15
2017-08-24T04:24:41.295Z,21.08
2017-08-24T04:27:12.996Z,21.09
2017-08-24T04:29:44.326Z,21.17
2017-08-24T04:32:15.765Z,21.21
2017-08-24T04:34:47.200Z,21.26
2017-08-24T04:37:18.484Z,21.26
2017-08-24T04:39:50.177Z,21.26
2017-08-24T04:42:21.538Z,21.24
2017-08-24T04:44:52.842Z,21.27
2017-08-24T04:47:25.462Z,21.32
2017-08-24T04:49:56.892Z,21.36
2017-08-24T04:52:28.207Z,21.35
2017-08-24T04:54:59.504Z,21.41
2017-08-24T04:57:31.330Z,21.47
2017-08-24T05:00:04.018Z,21.53
2017-08-24T05:02:35.396Z,21.54
2017-08-24T05:05:06.737Z,21.57
2017-08-24T05:07:38.514Z,21.60
2017-08-24T05:10:09.831Z,21.61
2017-08-24T05:12:41.178Z,21.64
2017-08-24T05:15:12.568Z,21.64
2017-08-24T05:17:43.885Z,21.62
2017-08-24T05:20:16.651Z,21.64
2017-08-24T05:22:48.235Z,21.66
2017-08-24T05:25:19.580Z,21.68
2017-08-24T05:27:51.573Z,21.72
2017-08-24T05:30:23.934Z,21.76
2017-08-24T05:32:55.307Z,21.81
2017-08-24T05:35:27.638Z,21.90
2017-08-24T05:38:04.307Z,21.91
2017-08-24T05:40:40.734Z,21.92
2017-08-24T05:43:12.240Z,22.00
2017-08-24T05:45:43.540Z,22.08
2017-08-24T05:48:15.278Z,22.16
2017-08-24T05:50:46.587Z,22.19
2017-08-24T05:53:17.904Z,22.27
2017-08-24T05:55:49.256Z,22.38
2017-08-24T05:58:20.582Z,22.44
2017-08-24T06:00:52.471Z,22.59
2017-08-24T06:03:24.945Z,22.72
2017-08-24T06:05:56.361Z,22.80
2017-08-24T06:08:29.501Z,22.94
2017-08-24T06:11:01.063Z,23.09
2017-08-24T06:13:32.690Z,23.22
2017-08-24T06:16:04.874Z,23.24
2017-08-24T06:18:36.354Z,23.27
2017-08-24T06:23:38.375Z,23.45
2017-08-24T06:26:09.783Z,23.48
2017-08-24T06:28:41.417Z,23.53
2017-08-24T06:31:12.756Z,23.58
2017-08-24T06:33:44.535Z,23.69
2017-08-24T06:36:16.000Z,23.79
2017-08-24T06:38:47.453Z,23.76
2017-08-24T06:41:19.192Z,23.82
2017-08-24T06:43:50.496Z,23.90
2017-08-24T06:46:22.209Z,23.86
2017-08-24T06:48:53.883Z,23.88
2017-08-24T06:51:26.454Z,23.96
2017-08-24T06:53:58.264Z,24.05
2017-08-24T06:56:30.069Z,24.17
2017-08-24T06:59:01.820Z,24.17
2017-08-24T07:01:33.713Z,24.23
2017-08-24T07:04:06.087Z,24.36
2017-08-24T07:06:37.663Z,24.42
2017-08-24T07:09:09.243Z,24.56
2017-08-24T07:11:40.554Z,24.76
2017-08-24T07:14:12.261Z,24.88
2017-08-24T07:16:44.183Z,25.11
2017-08-24T07:19:15.681Z,25.38
2017-08-24T07:21:47.543Z,25.56
2017-08-24T07:24:19.079Z,25.77
2017-08-24T07:26:50.700Z,25.75
2017-08-24T07:29:22.791Z,25.77
2017-08-24T07:31:54.255Z,25.82
2017-08-24T07:34:27.399Z,25.73
2017-08-24T07:36:58.840Z,25.83
2017-08-24T07:39:30.734Z,25.83
2017-08-24T07:42:02.545Z,25.91
2017-08-24T07:44:34.026Z,25.72
2017-08-24T07:47:05.636Z,25.65
2017-08-24T07:49:37.333Z,25.83
2017-08-24T07:52:08.745Z,26.13
2017-08-24T07:54:40.410Z,26.28
2017-08-24T07:57:11.736Z,26.21
2017-08-24T07:59:43.389Z,26.02
2017-08-24T08:02:14.822Z,26.23
2017-08-24T08:04:46.127Z,26.35
2017-08-24T08:07:18.984Z,26.48
2017-08-24T08:09:51.216Z,26.59
2017-08-24T08:12:23.206Z,26.66
2017-08-24T08:14:54.982Z,26.91
2017-08-24T08:17:27.544Z,27.12
2017-08-24T08:19:58.878Z,27.29
2017-08-24T08:22:31.324Z,27.25
2017-08-24T08:25:03.302Z,27.10
2017-08-24T08:27:34.899Z,26.80
2017-08-24T08:30:06.259Z,26.79
2017-08-24T08:33:07.968Z,26.99
2017-08-24T08:35:39.616Z,27.33
2017-08-24T08:38:11.122Z,27.44
2017-08-24T08:40:42.415Z,27.27
2017-08-24T08:43:16.111Z,27.43
2017-08-24T08:45:47.437Z,27.38
2017-08-24T08:48:18.980Z,27.46
2017-08-24T08:50:50.353Z,27.61
2017-08-24T08:53:21.662Z,27.80
2017-08-24T08:55:53.681Z,27.98
2017-08-24T08:58:26.965Z,27.86
2017-08-24T09:00:58.860Z,27.72
2017-08-24T09:03:30.591Z,27.77
2017-08-24T09:06:02.666Z,27.69
2017-08-24T09:08:34.405Z,28.04
2017-08-24T09:11:05.783Z,27.62
2017-08-24T09:13:37.124Z,27.59
2017-08-24T09:16:08.515Z,27.78
2017-08-24T09:18:39.923Z,27.77
2017-08-24T09:21:12.802Z,27.74
2017-08-24T09:23:44.114Z,27.97
2017-08-24T09:26:15.507Z,28.06
2017-08-24T09:28:47.096Z,28.22
2017-08-24T09:31:18.407Z,28.61
2017-08-24T09:33:49.694Z,28.73
2017-08-24T09:36:21.010Z,28.75
2017-08-24T09:38:52.309Z,28.91
2017-08-24T09:41:24.667Z,29.23
2017-08-24T09:43:56.003Z,28.99
2017-08-24T09:46:28.660Z,29.06
2017-08-24T09:49:00.473Z,29.29
2017-08-24T09:51:31.855Z,29.55
2017-08-24T09:54:04.162Z,29.83
2017-08-24T09:56:35.468Z,30.13
2017-08-24T09:59:07.011Z,30.38
2017-08-24T10:01:38.785Z,30.23
2017-08-24T10:04:10.733Z,30.29
2017-08-24T10:06:42.041Z,30.23
2017-08-24T10:09:13.759Z,30.13
2017-08-24T10:11:45.182Z,30.15
2017-08-24T10:14:16.855Z,30.41
2017-08-24T10:16:48.774Z,30.97
2017-08-24T10:19:20.246Z,31.42
2017-08-24T10:21:51.918Z,31.63
2017-08-24T10:24:23.431Z,32.24
2017-08-24T10:26:55.006Z,32.53
2017-08-24T10:29:27.816Z,33.07
2017-08-24T10:31:59.061Z,33.50
2017-08-24T10:34:30.412Z,34.03
2017-08-24T10:37:02.076Z,34.08
2017-08-24T10:39:33.416Z,34.07
2017-08-24T10:42:05.775Z,33.96
2017-08-24T10:44:37.119Z,34.33
2017-08-24T10:47:08.435Z,34.99
2017-08-24T10:49:40.068Z,35.41
2017-08-24T10:52:11.444Z,35.63
2017-08-24T10:54:43.260Z,36.16
2017-08-24T10:57:14.581Z,36.44
2017-08-24T10:59:45.859Z,36.63
2017-08-24T11:02:19.538Z,36.17
2017-08-24T11:04:51.027Z,35.16
2017-08-24T11:07:24.041Z,35.23
2017-08-24T11:10:13.219Z,34.32
2017-08-24T11:12:50.533Z,34.22
2017-08-24T11:15:22.261Z,34.34
2017-08-24T11:17:53.876Z,34.12
2017-08-24T11:20:26.758Z,33.85
2017-08-24T11:22:58.277Z,33.53
2017-08-24T11:25:29.882Z,33.81
2017-08-24T11:28:01.326Z,33.69
2017-08-24T11:30:33.068Z,33.74
2017-08-24T11:33:04.924Z,34.09
2017-08-24T11:35:36.256Z,33.79
2017-08-24T11:38:07.670Z,33.91
2017-08-24T11:40:39.021Z,34.14
2017-08-24T11:43:10.704Z,34.38
2017-08-24T11:45:42.192Z,34.35
2017-08-24T11:48:13.588Z,34.45
2017-08-24T11:50:44.926Z,34.25
2017-08-24T11:53:16.556Z,33.75
2017-08-24T11:55:47.875Z,34.28
2017-08-24T11:58:19.210Z,34.65
2017-08-24T12:00:50.864Z,34.19
2017-08-24T12:03:22.493Z,35.05
2017-08-24T12:05:56.895Z,35.05
2017-08-24T12:08:30.837Z,35.32
2017-08-24T12:11:03.009Z,35.61
2017-08-24T12:13:34.610Z,35.79
2017-08-24T12:16:07.836Z,35.64
2017-08-24T12:18:39.378Z,34.73
2017-08-24T12:21:11.225Z,35.48
2017-08-24T12:23:44.194Z,36.25
2017-08-24T12:26:15.620Z,37.13
2017-08-24T12:28:47.669Z,36.40
2017-08-24T12:31:20.443Z,37.48
2017-08-24T12:33:51.993Z,38.57
2017-08-24T12:36:24.061Z,39.49
2017-08-24T12:39:05.307Z,42.64
2017-08-24T12:41:36.688Z,44.40
2017-08-24T12:44:09.034Z,43.78
2017-08-24T12:46:40.705Z,43.74
2017-08-24T12:49:12.337Z,41.81
2017-08-24T12:51:43.789Z,40.71
2017-08-24T12:54:16.189Z,40.72
2017-08-24T12:56:48.025Z,40.44
2017-08-24T12:59:19.647Z,40.27
2017-08-24T13:01:51.674Z,40.15
2017-08-24T13:04:23.706Z,40.00
2017-08-24T13:06:55.123Z,40.09
2017-08-24T13:09:28.492Z,40.63
2017-08-24T13:11:59.804Z,42.34
2017-08-24T13:14:32.645Z,42.25
2017-08-24T13:17:04.366Z,41.02
2017-08-24T13:19:35.693Z,40.19
2017-08-24T13:22:07.080Z,40.65
2017-08-24T13:24:38.703Z,41.26
2017-08-24T13:27:10.016Z,41.79
2017-08-24T13:29:41.366Z,41.94
2017-08-24T13:32:13.005Z,41.70
2017-08-24T13:34:44.345Z,40.71
2017-08-24T13:37:15.948Z,41.12
2017-08-24T13:39:47.394Z,40.93
2017-08-24T13:42:18.757Z,40.23
2017-08-24T13:44:50.337Z,39.53
2017-08-24T13:47:21.634Z,38.27
2017-08-24T13:49:53.018Z,37.25
2017-08-24T13:52:25.592Z,36.64
2017-08-24T13:54:57.033Z,36.73
2017-08-24T13:57:29.236Z,36.79
2017-08-24T14:00:01.043Z,36.66
2017-08-24T14:02:32.541Z,35.54
2017-08-24T14:05:05.069Z,35.91
2017-08-24T14:07:36.391Z,36.58
2017-08-24T14:10:07.981Z,37.55
2017-08-24T14:12:39.302Z,38.20
2017-08-24T14:15:10.599Z,38.20
2017-08-24T14:17:41.937Z,39.29
2017-08-24T14:20:13.869Z,41.18
2017-08-24T14:22:45.535Z,41.68
2017-08-24T14:25:16.849Z,42.08
2017-08-24T14:27:48.264Z,41.84
2017-08-24T14:30:19.944Z,41.43
2017-08-24T14:32:51.550Z,40.32
2017-08-24T14:35:23.125Z,39.15
2017-08-24T14:37:55.128Z,38.10
2017-08-24T14:40:27.460Z,37.34
2017-08-24T14:42:59.074Z,36.45
2017-08-24T14:45:30.389Z,35.42
2017-08-24T14:48:02.632Z,34.79
2017-08-24T14:50:34.274Z,34.38
2017-08-24T14:53:05.628Z,34.22
2017-08-24T14:55:36.958Z,34.51
2017-08-24T14:58:08.299Z,35.09
2017-08-24T15:00:39.655Z,35.72
2017-08-24T15:03:11.266Z,36.46
2017-08-24T15:05:42.657Z,38.64
2017-08-24T15:08:13.978Z,41.02
2017-08-24T15:10:45.638Z,43.50
2017-08-24T15:13:16.965Z,45.44
2017-08-24T15:15:48.314Z,47.54
2017-08-24T15:18:20.570Z,48.37
2017-08-24T15:20:51.993Z,49.88
2017-08-24T15:23:24.676Z,50.46
2017-08-24T15:25:56.404Z,51.44
2017-08-24T15:28:28.875Z,51.39
2017-08-24T15:31:00.696Z,50.90
2017-08-24T15:33:32.061Z,49.86
2017-08-24T15:36:04.418Z,50.11
2017-08-24T15:38:35.812Z,49.89
2017-08-24T15:41:07.139Z,50.09
2017-08-24T15:43:38.811Z,49.53
2017-08-24T15:46:10.134Z,49.77
2017-08-24T15:48:41.452Z,48.79
2017-08-24T15:51:15.317Z,48.67
2017-08-24T15:53:46.796Z,47.72
2017-08-24T15:56:18.370Z,47.51
2017-08-24T15:58:49.801Z,47.34
2017-08-24T16:01:21.299Z,48.08
2017-08-24T16:03:56.311Z,47.55
2017-08-24T16:06:30.301Z,47.53
2017-08-24T16:09:02.133Z,47.52
2017-08-24T16:11:34.009Z,46.30
2017-08-24T16:14:06.350Z,45.75
2017-08-24T16:16:37.733Z,43.51
2017-08-24T16:19:10.708Z,42.09
2017-08-24T16:21:42.268Z,39.96
2017-08-24T16:24:25.786Z,38.99
2017-08-24T16:26:57.462Z,37.73
2017-08-24T16:29:29.176Z,37.92
2017-08-24T16:32:01.816Z,39.24
2017-08-24T16:34:35.231Z,40.31
2017-08-24T16:37:06.859Z,41.26
2017-08-24T16:39:38.200Z,41.61
2017-08-24T16:42:09.627Z,41.69
2017-08-24T16:44:41.913Z,41.92
2017-08-24T16:47:13.459Z,41.25
2017-08-24T16:49:45.109Z,40.66
2017-08-24T16:52:16.461Z,39.49
2017-08-24T16:54:48.035Z,39.07
2017-08-24T16:57:19.784Z,38.79
2017-08-24T16:59:51.153Z,38.81
2017-08-24T17:02:22.492Z,38.88
2017-08-24T17:04:54.590Z,38.38
2017-08-24T17:07:26.281Z,37.59
2017-08-24T17:09:57.764Z,36.31
2017-08-24T17:12:29.434Z,34.70
2017-08-24T17:15:00.955Z,33.13
2017-08-24T17:17:35.014Z,32.41
2017-08-24T17:20:06.692Z,31.74
2017-08-24T17:22:38.702Z,31.02
2017-08-24T17:25:10.555Z,30.57
2017-08-24T17:27:42.349Z,30.07
2017-08-24T17:30:13.736Z,29.59
2017-08-24T17:32:45.311Z,29.28
2017-08-24T17:35:17.004Z,28.92
2017-08-24T17:37:49.660Z,28.69
2017-08-24T17:43:18.396Z,28.17
2017-08-24T17:45:55.573Z,27.98
2017-08-24T17:48:28.758Z,27.81
2017-08-24T17:51:00.070Z,27.70
2017-08-24T17:53:32.296Z,27.56
2017-08-24T17:56:05.507Z,27.39
2017-08-24T17:58:37.031Z,27.23
2017-08-24T18:01:13.944Z,27.15
2017-08-24T18:03:45.514Z,27.06
2017-08-24T18:06:17.795Z,27.00
2017-08-24T18:08:51.822Z,26.88
2017-08-24T18:11:23.360Z,26.76
2017-08-24T18:13:55.746Z,26.69
2017-08-24T18:16:27.205Z,26.60
2017-08-24T18:18:58.837Z,26.61
2017-08-24T18:21:36.612Z,26.66
2017-08-24T18:24:08.236Z,26.70
2017-08-24T18:26:39.793Z,26.71
2017-08-24T18:29:11.458Z,26.67
2017-08-24T18:31:42.855Z,26.64
2017-08-24T18:34:15.779Z,26.62
2017-08-24T18:36:47.412Z,26.59
2017-08-24T18:39:18.800Z,26.48
2017-08-24T18:41:50.479Z,26.38
2017-08-24T18:44:23.553Z,26.36
2017-08-24T18:46:54.952Z,26.37
2017-08-24T18:49:26.749Z,26.35
2017-08-24T18:51:58.051Z,26.25
2017-08-24T18:54:32.300Z,26.24
2017-08-24T18:57:04.931Z,26.20
2017-08-24T18:59:38.044Z,26.11
2017-08-24T19:02:09.349Z,26.03
2017-08-24T19:04:40.967Z,26.06
2017-08-24T19:07:12.311Z,26.10
2017-08-24T19:09:43.958Z,26.09
2017-08-24T19:12:16.017Z,26.06
2017-08-24T19:14:47.967Z,25.99
2017-08-24T19:17:20.685Z,25.94
2017-08-24T19:19:52.104Z,25.87
2017-08-24T19:22:24.050Z,25.86
2017-08-24T19:24:55.729Z,25.82
2017-08-24T19:27:27.356Z,25.85
2017-08-24T19:29:58.916Z,25.78
2017-08-24T19:32:33.061Z,25.69
2017-08-24T19:35:09.766Z,25.65
2017-08-24T19:37:41.772Z,25.61
2017-08-24T19:40:13.132Z,25.56
2017-08-24T19:42:44.467Z,25.52
2017-08-24T19:45:16.686Z,25.48
2017-08-24T19:47:48.004Z,25.57
2017-08-24T19:50:19.876Z,25.54
2017-08-24T19:52:51.321Z,25.51
2017-08-24T19:55:22.831Z,25.50
2017-08-24T19:57:54.624Z,25.51
2017-08-24T20:00:26.045Z,25.61
2017-08-24T20:02:57.535Z,25.65
2017-08-24T20:05:29.142Z,25.66
2017-08-24T20:08:00.465Z,25.60
2017-08-24T20:10:33.144Z,25.60
2017-08-24T20:13:05.789Z,25.49
2017-08-24T20:16:39.943Z,25.42
2017-08-24T20:19:11.521Z,25.27
2017-08-24T20:21:42.929Z,25.17
2017-08-24T20:24:14.305Z,25.19
2017-08-24T20:26:45.703Z,25.22
2017-08-24T20:29:17.355Z,25.19
2017-08-24T20:31:49.209Z,25.24
2017-08-24T20:34:20.513Z,25.33
2017-08-24T20:36:52.552Z,25.34
2017-08-24T20:39:24.380Z,25.24
2017-08-24T20:41:55.824Z,25.12
2017-08-24T20:44:27.572Z,24.97
2017-08-24T20:46:59.052Z,24.87
2017-08-24T20:49:31.487Z,24.79
2017-08-24T20:52:05.986Z,24.76
2017-08-24T20:54:43.157Z,24.77
2017-08-24T20:57:16.114Z,24.70
2017-08-24T20:59:48.312Z,24.60
2017-08-24T21:05:45.125Z,24.50
2017-08-24T21:08:34.319Z,24.56
2017-08-24T21:11:22.680Z,24.80
2017-08-24T21:14:11.264Z,24.94
2017-08-24T21:16:59.023Z,24.98
2017-08-24T21:19:46.756Z,24.99
2017-08-24T21:22:24.285Z,25.05
2017-08-24T21:24:56.837Z,24.90
2017-08-24T21:27:31.115Z,24.84
2017-08-24T21:30:07.089Z,24.96
2017-08-24T21:32:44.441Z,25.08
2017-08-24T21:35:16.128Z,25.12
2017-08-24T21:37:55.407Z,25.09
2017-08-24T21:40:31.675Z,25.05
2017-08-24T21:43:06.862Z,25.23
2017-08-24T21:45:42.001Z,25.27
2017-08-24T21:48:30.870Z,25.16
2017-08-24T21:51:05.996Z,25.24
2017-08-24T21:53:39.747Z,25.22
2017-08-24T21:56:13.386Z,25.24
2017-08-24T21:58:46.655Z,25.24
2017-08-24T22:01:20.927Z,25.17
2017-08-24T22:03:53.294Z,25.00
2017-08-24T22:09:10.138Z,25.08
2017-08-24T22:11:41.554Z,24.89
2017-08-24T22:14:16.569Z,24.77
2017-08-24T22:16:49.078Z,24.83
2017-08-24T22:19:21.458Z,24.81
2017-08-24T22:21:52.795Z,24.70
2017-08-24T22:24:27.103Z,24.57
2017-08-24T22:26:59.888Z,24.58
2017-08-24T22:29:32.637Z,24.71
2017-08-24T22:32:10.088Z,24.65
2017-08-24T22:34:41.888Z,24.69
2017-08-24T22:37:15.095Z,24.83
2017-08-24T22:39:46.816Z,24.97
2017-08-24T22:42:18.514Z,24.88
2017-08-24T22:44:49.937Z,24.64
2017-08-24T22:47:27.871Z,24.36
2017-08-24T22:49:59.573Z,24.23
2017-08-24T22:52:32.636Z,24.47
2017-08-24T22:57:10.617Z,24.59
2017-08-24T23:01:49.409Z,24.63
2017-08-24T23:04:20.852Z,24.44
2017-08-24T23:06:52.196Z,24.39
2017-08-24T23:09:25.961Z,24.50
2017-08-24T23:11:57.940Z,24.70
2017-08-24T23:14:30.800Z,24.65
2017-08-24T23:17:03.676Z,24.62
2017-08-24T23:19:35.285Z,24.49
2017-08-24T23:22:08.090Z,24.37
2017-08-24T23:24:40.340Z,24.26
2017-08-24T23:27:12.676Z,24.18
2017-08-24T23:29:43.968Z,24.06
2017-08-24T23:32:15.882Z,24.06
2017-08-24T23:34:47.223Z,24.12
2017-08-24T23:37:18.665Z,24.16
2017-08-24T23:39:52.457Z,24.22
2017-08-24T23:42:24.727Z,24.33
2017-08-24T23:44:56.974Z,24.32
2017-08-24T23:47:31.506Z,24.25
2017-08-24T23:50:06.835Z,24.29
2017-08-24T23:52:38.566Z,24.37
2017-08-24T23:55:11.787Z,24.44
2017-08-24T23:57:43.852Z,24.46
